Time;durP1;ratioP1;P1;durP2;ratioP2;P2;SDS_P1;SDS_P2;PMS_P1;PMS_P2;Temp;Humidity;BMP_temperature;BMP_pressure;BME280_temperature;BME280_humidity;BME280_pressure;Samples;Min_cycle;Max_cycle;Signal;HPM_P1;HPM_P2
2023/02/09 00:01:17;;;;;;;;;;;;;;;-4.34;100.00;100942.09;4998524;28;20476;-57
2023/02/09 00:03:43;;;;;;;;;;;;;;;-4.75;100.00;100943.88;5001016;28;20012;-58
2023/02/09 00:06:10;;;;;;;;;;;;;;;-5.07;100.00;100938.84;4997566;28;19929;-57
2023/02/09 00:08:35;;;;;;;;;;;;;;;-5.24;100.00;100925.75;4994775;28;19995;-59
2023/02/09 00:11:06;;;;;;;;;;;;;;;-5.39;100.00;100924.53;5001678;28;19976;-59
2023/02/09 00:13:31;;;;;;;;;;;;;;;-5.66;100.00;100929.03;5000797;28;19972;-58
2023/02/09 00:16:00;;;;;;;;;;;;;;;-5.86;100.00;100924.06;4999804;28;20311;-58
2023/02/09 00:18:27;;;;;;;;;;;;;;;-6.02;100.00;100918.56;5031632;28;20071;-58
2023/02/09 00:21:03;;;;;;;;;;;;;;;-6.14;100.00;100920.91;4999721;28;19984;-60
2023/02/09 00:23:30;;;;;;;;;;;;;;;-6.21;100.00;100925.28;5001564;28;19925;-59
2023/02/09 00:25:59;;;;;;;;;;;;;;;-6.31;100.00;100920.25;4998579;28;19929;-58
2023/02/09 00:28:24;;;;;;;;;;;;;;;-6.35;100.00;100920.75;5000645;28;19929;-58
2023/02/09 00:30:50;;;;;;;;;;;;;;;-6.42;100.00;100916.00;5000718;28;19929;-58
2023/02/09 00:33:16;;;;;;;;;;;;;;;-6.44;100.00;100918.34;5000349;28;20106;-57
2023/02/09 00:35:42;;;;;;;;;;;;;;;-6.48;100.00;100924.72;5001442;28;20372;-57
2023/02/09 00:38:09;;;;;;;;;;;;;;;-6.53;100.00;100927.53;4998814;28;20091;-58
2023/02/09 00:40:35;;;;;;;;;;;;;;;-6.56;100.00;100922.31;5001060;28;20044;-58
2023/02/09 00:43:01;;;;;;;;;;;;;;;-6.52;100.00;100915.22;4996088;28;20342;-58
2023/02/09 00:45:26;;;;;;;;;;;;;;;-6.58;100.00;100914.72;4998382;28;20231;-58
2023/02/09 00:47:52;;;;;;;;;;;;;;;-6.57;100.00;100905.59;4998737;28;19937;-59
2023/02/09 00:50:18;;;;;;;;;;;;;;;-6.65;100.00;100906.56;4997335;28;19965;-58
2023/02/09 00:52:43;;;;;;;;;;;;;;;-6.68;100.00;100896.34;4996725;28;19938;-59
2023/02/09 00:55:09;;;;;;;;;;;;;;;-6.72;100.00;100894.31;5000206;28;20295;-58
2023/02/09 00:57:35;;;;;;;;;;;;;;;-6.75;100.00;100896.56;4999430;28;20345;-56
2023/02/09 01:00:02;;;;;;;;;;;;;;;-6.79;100.00;100892.94;4996077;28;19929;-59
2023/02/09 01:02:27;;;;;;;;;;;;;;;-6.83;100.00;100892.56;4996970;28;19926;-58
2023/02/09 01:04:53;;;;;;;;;;;;;;;-6.89;100.00;100882.91;4996024;28;20443;-58
2023/02/09 01:07:18;;;;;;;;;;;;;;;-6.89;100.00;100880.44;4996688;28;20455;-58
2023/02/09 01:09:44;;;;;;;;;;;;;;;-6.87;100.00;100880.56;4998553;28;20376;-57
2023/02/09 01:12:09;;;;;;;;;;;;;;;-6.87;100.00;100873.94;4999012;28;19998;-59
2023/02/09 01:14:37;;;;;;;;;;;;;;;-6.90;100.00;100867.81;5030334;28;19980;-63
2023/02/09 01:17:02;;;;;;;;;;;;;;;-6.89;100.00;100864.59;5000325;28;20291;-59
2023/02/09 01:19:28;;;;;;;;;;;;;;;-6.92;100.00;100860.25;4998375;28;19931;-58
2023/02/09 01:21:53;;;;;;;;;;;;;;;-6.96;100.00;100850.75;4997017;28;19936;-58
2023/02/09 01:24:19;;;;;;;;;;;;;;;-6.96;100.00;100851.59;4998831;28;19972;-58
2023/02/09 01:26:46;;;;;;;;;;;;;;;-6.97;100.00;100852.38;5000300;28;19936;-58
2023/02/09 01:29:14;;;;;;;;;;;;;;;-6.98;100.00;100848.13;4999876;28;20277;-58
2023/02/09 01:31:39;;;;;;;;;;;;;;;-6.94;100.00;100845.13;5002282;28;19997;-59
2023/02/09 01:34:04;;;;;;;;;;;;;;;-6.96;100.00;100844.13;4997963;28;19933;-57
2023/02/09 01:36:31;;;;;;;;;;;;;;;-6.98;100.00;100840.63;5002606;28;20483;-58
2023/02/09 01:38:58;;;;;;;;;;;;;;;-6.96;100.00;100838.28;5012788;28;20099;-60
2023/02/09 01:41:24;;;;;;;;;;;;;;;-7.00;100.00;100837.13;5010742;28;20415;-58
2023/02/09 01:43:52;;;;;;;;;;;;;;;-7.02;100.00;100833.66;5011690;28;20467;-59
2023/02/09 01:46:18;;;;;;;;;;;;;;;-7.05;100.00;100832.50;5006728;28;19926;-58
2023/02/09 01:48:43;;;;;;;;;;;;;;;-7.02;100.00;100818.69;5000247;28;19933;-56
2023/02/09 01:51:09;;;;;;;;;;;;;;;-7.02;100.00;100826.16;4997293;28;20024;-56
2023/02/09 01:53:35;;;;;;;;;;;;;;;-7.04;100.00;100817.66;4999422;28;20087;-57
2023/02/09 01:56:03;;;;;;;;;;;;;;;-7.00;100.00;100813.84;4998495;28;19929;-57
2023/02/09 01:58:29;;;;;;;;;;;;;;;-7.06;100.00;100811.69;5010252;28;19933;-58
2023/02/09 02:00:55;;;;;;;;;;;;;;;-7.04;100.00;100805.22;4999400;28;19929;-59
2023/02/09 02:03:23;;;;;;;;;;;;;;;-7.05;100.00;100808.47;5030291;28;20459;-56
2023/02/09 02:05:51;;;;;;;;;;;;;;;-7.11;100.00;100807.06;4998581;28;19926;-58
2023/02/09 02:08:23;;;;;;;;;;;;;;;-7.11;100.00;100812.03;4999160;28;19925;-58
2023/02/09 02:10:49;;;;;;;;;;;;;;;-7.14;100.00;100796.84;4996947;28;19935;-56
2023/02/09 02:13:15;;;;;;;;;;;;;;;-7.20;100.00;100793.81;5013312;28;19929;-56
2023/02/09 02:15:50;;;;;;;;;;;;;;;-7.24;100.00;100786.81;4999538;28;20332;-56
2023/02/09 02:18:34;;;;;;;;;;;;;;;-7.28;100.00;100787.31;4999211;28;20024;-57
2023/02/09 02:21:11;;;;;;;;;;;;;;;-7.28;100.00;100779.84;4998076;28;20376;-57
2023/02/09 02:23:43;;;;;;;;;;;;;;;-7.33;100.00;100773.59;4995179;28;19952;-58
2023/02/09 02:26:08;;;;;;;;;;;;;;;-7.38;100.00;100781.53;5029063;28;19965;-56
2023/02/09 02:28:34;;;;;;;;;;;;;;;-7.36;100.00;100770.84;5030128;28;20032;-58
2023/02/09 02:31:18;;;;;;;;;;;;;;;-7.23;100.00;100764.53;4998675;28;19926;-58
2023/02/09 02:33:54;;;;;;;;;;;;;;;-7.26;100.00;100758.44;4997476;28;19929;-57
2023/02/09 02:36:28;;;;;;;;;;;;;;;-7.10;100.00;100756.47;4997312;28;19935;-59
2023/02/09 02:39:14;;;;;;;;;;;;;;;-7.07;100.00;100761.72;4997934;28;19930;-57
2023/02/09 02:44:31;;;;;;;;;;;;;;;-7.10;100.00;100763.97;4998528;28;19972;-58
2023/02/09 02:47:00;;;;;;;;;;;;;;;-7.05;100.00;100762.75;4994110;28;20246;-57
2023/02/09 02:49:28;;;;;;;;;;;;;;;-7.05;100.00;100763.63;4996909;28;19922;-59
2023/02/09 02:51:55;;;;;;;;;;;;;;;-7.06;100.00;100765.97;5028171;28;19929;-58
2023/02/09 02:54:24;;;;;;;;;;;;;;;-7.12;100.00;100756.34;4999722;28;20044;-58
2023/02/09 02:56:52;;;;;;;;;;;;;;;-7.13;100.00;100751.25;4999006;28;19972;-55
2023/02/09 02:59:21;;;;;;;;;;;;;;;-7.19;100.00;100748.22;4999072;28;19925;-56
2023/02/09 03:02:06;;;;;;;;;;;;;;;-7.24;100.00;100742.84;4998389;28;19925;-57
2023/02/09 03:04:34;;;;;;;;;;;;;;;-7.26;100.00;100750.97;4998621;28;20370;-58
2023/02/09 03:07:03;;;;;;;;;;;;;;;-7.30;100.00;100746.47;4998011;28;19991;-56
2023/02/09 03:09:28;;;;;;;;;;;;;;;-7.34;100.00;100749.44;4998355;28;20415;-57
2023/02/09 03:11:56;;;;;;;;;;;;;;;-7.35;100.00;100755.16;4998062;28;20003;-61
2023/02/09 03:14:41;;;;;;;;;;;;;;;-7.40;100.00;100752.28;5003252;28;19976;-56
2023/02/09 03:17:10;;;;;;;;;;;;;;;-7.35;100.00;100751.06;5001839;28;19945;-56
2023/02/09 03:20:05;;;;;;;;;;;;;;;-7.38;100.00;100751.66;5001848;28;19996;-56
2023/02/09 03:22:38;;;;;;;;;;;;;;;-7.46;100.00;100746.75;4999278;28;19925;-56
2023/02/09 03:25:06;;;;;;;;;;;;;;;-7.49;100.00;100752.38;5003265;28;20048;-55
2023/02/09 03:27:58;;;;;;;;;;;;;;;-7.50;100.00;100749.72;5002802;28;19925;-57
2023/02/09 03:30:24;;;;;;;;;;;;;;;-7.54;100.00;100747.72;5002563;28;20377;-56
2023/02/09 03:32:54;;;;;;;;;;;;;;;-7.57;100.00;100748.34;5001549;28;19926;-56
2023/02/09 03:35:21;;;;;;;;;;;;;;;-7.60;100.00;100750.59;5002490;28;19930;-57
2023/02/09 03:37:47;;;;;;;;;;;;;;;-7.62;100.00;100752.06;5001282;28;19988;-56
2023/02/09 03:40:12;;;;;;;;;;;;;;;-7.54;100.00;100755.19;5002596;28;19933;-55
2023/02/09 03:42:38;;;;;;;;;;;;;;;-7.51;100.00;100756.31;5002694;28;19929;-59
2023/02/09 03:45:06;;;;;;;;;;;;;;;-7.50;100.00;100753.09;5002057;28;20153;-58
2023/02/09 03:47:32;;;;;;;;;;;;;;;-7.59;100.00;100741.47;5002366;28;19929;-56
2023/02/09 03:49:58;;;;;;;;;;;;;;;-7.58;100.00;100751.56;5016495;28;19935;-54
2023/02/09 03:52:23;;;;;;;;;;;;;;;-7.61;100.00;100760.41;5000961;28;20519;-58
2023/02/09 03:54:49;;;;;;;;;;;;;;;-7.64;100.00;100753.56;5000925;28;19930;-56
2023/02/09 03:57:14;;;;;;;;;;;;;;;-7.60;100.00;100757.19;5001952;28;20400;-56
2023/02/09 03:59:40;;;;;;;;;;;;;;;-7.56;100.00;100752.59;5001395;28;20504;-57
2023/02/09 04:02:06;;;;;;;;;;;;;;;-7.51;100.00;100748.84;4998976;28;19933;-58
2023/02/09 04:04:32;;;;;;;;;;;;;;;-7.50;100.00;100744.75;5001779;28;19971;-56
2023/02/09 04:06:57;;;;;;;;;;;;;;;-7.21;100.00;100752.22;5017213;28;20396;-58
2023/02/09 04:09:24;;;;;;;;;;;;;;;-7.24;100.00;100749.44;4999361;28;19973;-56
2023/02/09 04:11:50;;;;;;;;;;;;;;;-7.27;100.00;100747.59;5000920;28;20185;-57
2023/02/09 04:14:15;;;;;;;;;;;;;;;-7.18;100.00;100753.34;5001237;28;19979;-57
2023/02/09 04:16:41;;;;;;;;;;;;;;;-7.22;100.00;100755.47;5031253;28;20322;-57
2023/02/09 04:19:08;;;;;;;;;;;;;;;-7.15;100.00;100750.25;5000603;28;19935;-56
2023/02/09 04:21:34;;;;;;;;;;;;;;;-6.94;100.00;100745.44;5000592;28;19930;-58
2023/02/09 04:24:00;;;;;;;;;;;;;;;-6.58;100.00;100742.63;5000560;28;20389;-56
2023/02/09 04:26:25;;;;;;;;;;;;;;;-6.22;100.00;100747.22;5002052;28;19926;-59
2023/02/09 04:28:51;;;;;;;;;;;;;;;-5.95;100.00;100750.19;5002905;28;19925;-59
2023/02/09 04:31:16;;;;;;;;;;;;;;;-6.39;100.00;100732.50;5000575;28;19935;-57
2023/02/09 04:33:41;;;;;;;;;;;;;;;-6.45;100.00;100749.50;4999526;28;20266;-57
2023/02/09 04:36:08;;;;;;;;;;;;;;;-6.53;100.00;100753.81;5001716;28;20012;-59
2023/02/09 04:38:33;;;;;;;;;;;;;;;-6.64;100.00;100749.59;5001730;28;20092;-57
2023/02/09 04:40:59;;;;;;;;;;;;;;;-6.65;100.00;100750.31;5000776;28;19991;-57
2023/02/09 04:43:25;;;;;;;;;;;;;;;-6.51;100.00;100749.84;5001548;28;19925;-58
2023/02/09 04:45:50;;;;;;;;;;;;;;;-6.37;100.00;100747.59;5000991;28;19937;-57
2023/02/09 04:48:18;;;;;;;;;;;;;;;-6.12;100.00;100746.34;5000539;28;19964;-55
2023/02/09 04:50:43;;;;;;;;;;;;;;;-5.97;100.00;100749.16;5000581;28;19925;-56
2023/02/09 04:53:09;;;;;;;;;;;;;;;-6.30;100.00;100743.22;4999473;28;19929;-57
2023/02/09 04:55:38;;;;;;;;;;;;;;;-6.43;100.00;100735.50;5000473;28;20381;-56
2023/02/09 05:00:48;;;;;;;;;;;;;;;-6.54;100.00;100743.75;4999288;28;20004;-57
2023/02/09 05:03:14;;;;;;;;;;;;;;;-6.75;100.00;100744.47;5003256;28;20340;-56
2023/02/09 05:05:39;;;;;;;;;;;;;;;-6.87;100.00;100746.81;4998998;28;20510;-58
2023/02/09 05:08:05;;;;;;;;;;;;;;;-7.03;100.00;100748.78;4998762;28;19926;-57
2023/02/09 05:10:30;;;;;;;;;;;;;;;-7.14;100.00;100752.00;5000112;28;19929;-58
2023/02/09 05:12:56;;;;;;;;;;;;;;;-7.28;100.00;100753.31;4999822;28;20312;-58
2023/02/09 05:15:21;;;;;;;;;;;;;;;-7.29;100.00;100755.66;4998145;28;19975;-56
2023/02/09 05:17:46;;;;;;;;;;;;;;;-7.38;100.00;100748.28;4997529;28;19929;-57
2023/02/09 05:20:12;;;;;;;;;;;;;;;-7.54;100.00;100751.09;5000289;28;20028;-55
2023/02/09 05:22:37;;;;;;;;;;;;;;;-7.63;100.00;100750.28;4998304;28;20269;-57
2023/02/09 05:25:03;;;;;;;;;;;;;;;-7.74;100.00;100755.09;5008327;28;19930;-57
2023/02/09 05:27:28;;;;;;;;;;;;;;;-7.81;100.00;100761.19;4999114;28;19971;-58
2023/02/09 05:29:54;;;;;;;;;;;;;;;-7.92;100.00;100762.72;4999429;28;20408;-57
2023/02/09 05:32:19;;;;;;;;;;;;;;;-7.93;100.00;100757.59;4998702;28;19925;-59
2023/02/09 05:34:45;;;;;;;;;;;;;;;-7.94;100.00;100758.34;4996542;28;20433;-58
2023/02/09 05:37:11;;;;;;;;;;;;;;;-7.97;100.00;100758.94;4999824;28;20307;-58
2023/02/09 05:39:36;;;;;;;;;;;;;;;-8.04;100.00;100766.63;4999025;28;19933;-58
2023/02/09 05:42:17;;;;;;;;;;;;;;;-8.14;100.00;100759.09;4998145;28;20016;-57
2023/02/09 05:44:43;;;;;;;;;;;;;;;-8.19;100.00;100761.94;4998006;28;19925;-58
2023/02/09 05:47:09;;;;;;;;;;;;;;;-8.18;100.00;100772.00;5000947;28;19972;-58
2023/02/09 05:49:34;;;;;;;;;;;;;;;-8.21;100.00;100765.88;4999645;28;20395;-57
2023/02/09 05:52:00;;;;;;;;;;;;;;;-8.26;100.00;100762.09;4999281;28;19930;-57
2023/02/09 05:54:25;;;;;;;;;;;;;;;-8.24;100.00;100761.50;4998597;28;19932;-59
2023/02/09 05:56:51;;;;;;;;;;;;;;;-8.21;100.00;100770.84;5000868;28;20416;-55
2023/02/09 05:59:16;;;;;;;;;;;;;;;-8.21;100.00;100761.78;4998117;28;19930;-60
2023/02/09 06:01:42;;;;;;;;;;;;;;;-8.15;100.00;100763.94;4996204;28;20408;-58
2023/02/09 06:04:08;;;;;;;;;;;;;;;-8.16;100.00;100755.59;4998848;28;20223;-57
2023/02/09 06:06:33;;;;;;;;;;;;;;;-8.06;100.00;100762.28;5010494;28;19991;-57
2023/02/09 06:08:58;;;;;;;;;;;;;;;-8.04;100.00;100761.66;4995281;28;20012;-55
2023/02/09 06:11:24;;;;;;;;;;;;;;;-8.05;100.00;100761.50;5000371;28;19961;-57
2023/02/09 06:13:49;;;;;;;;;;;;;;;-8.06;100.00;100757.28;4999713;28;20490;-56
2023/02/09 06:16:15;;;;;;;;;;;;;;;-8.05;100.00;100759.91;5001255;28;20310;-57
2023/02/09 06:18:40;;;;;;;;;;;;;;;-8.04;100.00;100764.13;5001617;28;20480;-60
2023/02/09 06:21:06;;;;;;;;;;;;;;;-8.06;100.00;100772.22;5000108;28;19925;-58
2023/02/09 06:23:32;;;;;;;;;;;;;;;-8.05;100.00;100772.34;5033070;28;19972;-58
2023/02/09 06:25:57;;;;;;;;;;;;;;;-8.04;100.00;100773.22;4997114;28;20352;-59
2023/02/09 06:28:23;;;;;;;;;;;;;;;-8.07;100.00;100767.97;4996670;28;20554;-58
2023/02/09 06:30:49;;;;;;;;;;;;;;;-8.05;100.00;100766.47;4997819;28;19925;-63
2023/02/09 06:33:15;;;;;;;;;;;;;;;-8.02;100.00;100765.13;4995576;28;19930;-55
2023/02/09 06:35:40;;;;;;;;;;;;;;;-7.99;100.00;100767.91;4998080;28;20319;-58
2023/02/09 06:38:05;;;;;;;;;;;;;;;-7.90;100.00;100781.16;4996866;28;19925;-57
2023/02/09 06:40:31;;;;;;;;;;;;;;;-7.86;100.00;100780.69;4995667;28;20091;-56
2023/02/09 06:42:56;;;;;;;;;;;;;;;-7.78;100.00;100780.47;4993665;28;20666;-58
2023/02/09 06:45:22;;;;;;;;;;;;;;;-7.67;100.00;100775.66;4993951;28;19999;-58
2023/02/09 06:47:48;;;;;;;;;;;;;;;-7.58;100.00;100776.47;4998435;28;20447;-59
2023/02/09 06:50:16;;;;;;;;;;;;;;;-7.48;100.00;100774.03;4999545;28;20037;-58
2023/02/09 06:52:42;;;;;;;;;;;;;;;-7.32;100.00;100777.81;4999720;28;19967;-59
2023/02/09 06:55:08;;;;;;;;;;;;;;;-7.22;100.00;100777.88;4999258;28;20095;-60
2023/02/09 06:57:35;;;;;;;;;;;;;;;-7.13;100.00;100772.03;4999007;28;19979;-59
2023/02/09 07:00:00;;;;;;;;;;;;;;;-7.00;100.00;100773.97;4999830;28;20032;-59
2023/02/09 07:02:26;;;;;;;;;;;;;;;-6.86;100.00;100785.06;5000945;28;19967;-58
2023/02/09 07:04:52;;;;;;;;;;;;;;;-6.73;100.00;100773.75;4998167;28;20439;-58
2023/02/09 07:07:17;;;;;;;;;;;;;;;-6.62;100.00;100772.16;4997735;28;20424;-58
2023/02/09 07:09:43;;;;;;;;;;;;;;;-6.51;100.00;100774.78;5000910;28;20670;-58
2023/02/09 07:12:08;;;;;;;;;;;;;;;-6.36;100.00;100764.31;5002872;28;20452;-57
2023/02/09 07:14:33;;;;;;;;;;;;;;;-6.21;100.00;100765.56;5001684;28;20019;-55
2023/02/09 07:16:59;;;;;;;;;;;;;;;-6.11;100.00;100761.41;4997083;28;20464;-54
2023/02/09 07:19:25;;;;;;;;;;;;;;;-6.03;100.00;100767.06;4996575;28;19933;-55
2023/02/09 07:21:50;;;;;;;;;;;;;;;-5.83;100.00;100768.59;4996254;28;20318;-59
2023/02/09 07:24:15;;;;;;;;;;;;;;;-5.71;100.00;100764.56;5012500;28;19983;-57
2023/02/09 07:26:41;;;;;;;;;;;;;;;-5.61;100.00;100767.94;4997891;28;19933;-55
2023/02/09 07:29:07;;;;;;;;;;;;;;;-5.41;100.00;100771.09;4998837;28;20510;-55
2023/02/09 07:31:32;;;;;;;;;;;;;;;-5.27;100.00;100776.44;4999225;28;20021;-55
2023/02/09 07:33:58;;;;;;;;;;;;;;;-5.11;100.00;100768.47;4999704;28;19921;-54
2023/02/09 07:36:23;;;;;;;;;;;;;;;-4.97;100.00;100759.53;4998261;28;20024;-54
2023/02/09 07:38:49;;;;;;;;;;;;;;;-4.81;100.00;100760.81;4998087;28;19929;-56
2023/02/09 07:41:19;;;;;;;;;;;;;;;-4.62;100.00;100753.03;4998095;28;19936;-57
2023/02/09 07:43:44;;;;;;;;;;;;;;;-4.44;100.00;100753.53;4995671;28;19936;-56
2023/02/09 07:46:12;;;;;;;;;;;;;;;-4.27;100.00;100755.63;4998367;28;19973;-55
2023/02/09 07:48:37;;;;;;;;;;;;;;;-4.11;100.00;100756.00;4996198;28;20321;-53
2023/02/09 07:51:03;;;;;;;;;;;;;;;-3.92;100.00;100759.06;4993689;28;20405;-58
2023/02/09 07:53:29;;;;;;;;;;;;;;;-3.77;100.00;100762.66;4996030;28;20513;-51
2023/02/09 07:55:54;;;;;;;;;;;;;;;-3.60;100.00;100761.34;4996724;28;20415;-55
2023/02/09 07:58:20;;;;;;;;;;;;;;;-3.47;100.00;100765.59;4997824;28;19933;-53
2023/02/09 08:00:47;;;;;;;;;;;;;;;-3.40;100.00;100762.78;4994820;28;20004;-55
2023/02/09 08:03:13;;;;;;;;;;;;;;;-3.22;100.00;100758.19;4996687;28;19926;-52
2023/02/09 08:05:46;;;;;;;;;;;;;;;-3.06;100.00;100753.44;4997979;28;19925;-54
2023/02/09 08:08:12;;;;;;;;;;;;;;;-2.89;100.00;100751.34;4995723;28;19931;-55
2023/02/09 08:10:38;;;;;;;;;;;;;;;-2.78;100.00;100750.41;4997050;28;20304;-53
2023/02/09 08:13:03;;;;;;;;;;;;;;;-2.65;100.00;100758.75;4996019;28;20309;-55
2023/02/09 08:15:49;;;;;;;;;;;;;;;-2.46;100.00;100759.22;4995916;28;19929;-56
2023/02/09 08:18:17;;;;;;;;;;;;;;;-2.34;100.00;100760.03;4999360;28;19925;-55
2023/02/09 08:20:44;;;;;;;;;;;;;;;-2.18;100.00;100757.75;4997600;28;20020;-55
2023/02/09 08:23:13;;;;;;;;;;;;;;;-2.10;100.00;100761.63;4997446;28;20117;-54
2023/02/09 08:25:39;;;;;;;;;;;;;;;-1.99;100.00;100760.69;5000351;28;20233;-54
2023/02/09 08:28:04;;;;;;;;;;;;;;;-1.80;100.00;100755.19;5002267;28;20028;-54
2023/02/09 08:30:30;;;;;;;;;;;;;;;-1.72;100.00;100755.69;5000454;28;19933;-56
2023/02/09 08:32:56;;;;;;;;;;;;;;;-1.67;100.00;100751.81;4996071;28;19925;-55
2023/02/09 08:35:21;;;;;;;;;;;;;;;-1.48;100.00;100755.56;4996436;28;20056;-53
2023/02/09 08:37:46;;;;;;;;;;;;;;;-1.37;100.00;100748.72;4995873;28;19937;-53
2023/02/09 08:40:13;;;;;;;;;;;;;;;-1.18;100.00;100758.25;4996569;28;19936;-52
2023/02/09 08:42:39;;;;;;;;;;;;;;;-1.16;100.00;100745.00;4998574;28;19937;-53
2023/02/09 08:45:04;;;;;;;;;;;;;;;-0.97;100.00;100750.38;4997015;28;19929;-53
2023/02/09 08:47:30;;;;;;;;;;;;;;;-0.80;100.00;100750.50;4998844;28;19936;-52
2023/02/09 08:49:56;;;;;;;;;;;;;;;-0.72;100.00;100741.78;4995474;28;19933;-54
2023/02/09 08:52:22;;;;;;;;;;;;;;;-0.59;100.00;100744.22;4996490;28;20372;-54
2023/02/09 08:54:47;;;;;;;;;;;;;;;-0.50;100.00;100745.63;4995354;28;19925;-53
2023/02/09 08:57:13;;;;;;;;;;;;;;;-0.31;100.00;100735.00;4996514;28;19976;-54
2023/02/09 08:59:38;;;;;;;;;;;;;;;-0.41;100.00;100740.28;4996662;28;19929;-56
2023/02/09 09:02:04;;;;;;;;;;;;;;;0.20;100.00;100733.69;4995201;28;20356;-57
2023/02/09 09:04:29;;;;;;;;;;;;;;;1.14;100.00;100733.75;4996295;28;20207;-55
2023/02/09 09:06:55;;;;;;;;;;;;;;;1.07;100.00;100727.50;4996564;28;20618;-55
2023/02/09 09:09:20;;;;;;;;;;;;;;;1.83;100.00;100732.25;4994564;28;19929;-51
2023/02/09 09:11:46;;;;;;;;;;;;;;;1.87;100.00;100732.44;4996487;28;19998;-54
2023/02/09 09:14:11;;;;;;;;;;;;;;;1.73;100.00;100729.22;4995198;28;20007;-53
2023/02/09 09:16:36;;;;;;;;;;;;;;;1.69;99.82;100732.38;4996371;28;20337;-51
2023/02/09 09:19:03;;;;;;;;;;;;;;;1.62;98.67;100723.59;4997107;28;19930;-54
2023/02/09 09:21:28;;;;;;;;;;;;;;;1.62;98.93;100726.13;4994816;28;19930;-53
2023/02/09 09:23:54;;;;;;;;;;;;;;;2.34;97.81;100725.44;4995397;28;19934;-55
2023/02/09 09:26:19;;;;;;;;;;;;;;;2.60;91.61;100730.06;4995273;28;20604;-54
2023/02/09 09:28:47;;;;;;;;;;;;;;;2.61;87.42;100714.09;4994432;28;19933;-54
2023/02/09 09:31:15;;;;;;;;;;;;;;;2.91;86.15;100713.75;4996474;28;19925;-52
2023/02/09 09:33:41;;;;;;;;;;;;;;;2.98;82.62;100715.72;4994627;28;19926;-56
2023/02/09 09:36:07;;;;;;;;;;;;;;;3.21;80.35;100715.09;4993484;28;19932;-55
2023/02/09 09:38:33;;;;;;;;;;;;;;;3.46;77.69;100709.41;4997015;28;20098;-54
2023/02/09 09:40:59;;;;;;;;;;;;;;;3.45;77.55;100711.06;5023927;28;20325;-54
2023/02/09 09:43:31;;;;;;;;;;;;;;;3.99;74.52;100716.69;4998713;28;19936;-54
2023/02/09 09:45:57;;;;;;;;;;;;;;;3.76;72.96;100705.63;4994911;28;19981;-54
2023/02/09 09:48:27;;;;;;;;;;;;;;;3.91;72.72;100705.38;4993634;28;20570;-55
2023/02/09 09:50:55;;;;;;;;;;;;;;;4.22;70.91;100703.28;4994885;28;19932;-52
2023/02/09 09:53:32;;;;;;;;;;;;;;;4.12;70.95;100698.63;4993652;28;19965;-52
2023/02/09 09:56:00;;;;;;;;;;;;;;;4.25;71.75;100699.97;4995882;28;19925;-54
2023/02/09 09:58:26;;;;;;;;;;;;;;;4.24;70.90;100694.06;4997467;28;19983;-54
2023/02/09 10:00:52;;;;;;;;;;;;;;;3.78;70.90;100685.41;4996689;28;19925;-53
2023/02/09 10:03:20;;;;;;;;;;;;;;;3.54;72.57;100683.56;4995580;28;19961;-54
2023/02/09 10:05:47;;;;;;;;;;;;;;;3.18;79.07;100687.09;4997972;28;19926;-53
2023/02/09 10:08:27;;;;;;;;;;;;;;;2.96;84.29;100692.03;4997333;28;19941;-52
2023/02/09 10:10:53;;;;;;;;;;;;;;;2.98;84.49;100683.66;4995372;28;19940;-50
2023/02/09 10:13:18;;;;;;;;;;;;;;;2.85;88.42;100678.00;4993754;28;20087;-54
2023/02/09 10:15:46;;;;;;;;;;;;;;;2.95;76.23;100675.06;4995708;28;20400;-56
2023/02/09 10:18:13;;;;;;;;;;;;;;;2.90;66.59;100676.53;4994404;28;19952;-53
2023/02/09 10:20:49;;;;;;;;;;;;;;;2.97;62.60;100670.97;4993296;28;19968;-55
2023/02/09 10:23:14;;;;;;;;;;;;;;;3.00;60.50;100666.03;4995078;28;19926;-55
2023/02/09 10:25:59;;;;;;;;;;;;;;;3.06;57.45;100661.19;4993921;28;19926;-51
2023/02/09 10:28:26;;;;;;;;;;;;;;;3.08;56.98;100673.16;4996125;28;19925;-54
2023/02/09 10:30:55;;;;;;;;;;;;;;;3.20;55.27;100665.19;4995889;28;20430;-54
2023/02/09 10:33:21;;;;;;;;;;;;;;;3.15;54.68;100662.47;5007530;28;19925;-55
2023/02/09 10:35:50;;;;;;;;;;;;;;;2.90;54.29;100666.41;4993661;28;19929;-55
2023/02/09 10:38:17;;;;;;;;;;;;;;;2.90;55.20;100647.00;4990982;28;19999;-54
2023/02/09 10:40:46;;;;;;;;;;;;;;;2.99;55.67;100651.59;4995880;28;19933;-53
2023/02/09 10:43:17;;;;;;;;;;;;;;;2.85;56.51;100642.53;4997973;28;19936;-53
2023/02/09 10:45:44;;;;;;;;;;;;;;;3.08;55.09;100634.28;4995462;28;19934;-56
2023/02/09 10:48:12;;;;;;;;;;;;;;;3.13;55.50;100631.16;4994250;28;20001;-54
2023/02/09 10:50:58;;;;;;;;;;;;;;;3.05;54.66;100627.44;4994340;28;20353;-53
2023/02/09 10:53:26;;;;;;;;;;;;;;;3.06;55.12;100618.13;4992519;28;20451;-54
2023/02/09 10:56:06;;;;;;;;;;;;;;;3.21;53.19;100623.88;4994643;28;20355;-55
2023/02/09 10:58:33;;;;;;;;;;;;;;;3.23;52.75;100615.50;4996712;28;20358;-55
2023/02/09 11:01:08;;;;;;;;;;;;;;;3.26;51.80;100612.25;4995053;28;19993;-54
2023/02/09 11:03:34;;;;;;;;;;;;;;;3.21;52.34;100618.78;4992965;28;20000;-56
2023/02/09 11:06:08;;;;;;;;;;;;;;;3.31;51.92;100620.06;4993301;28;20380;-52
2023/02/09 11:08:57;;;;;;;;;;;;;;;3.25;51.84;100615.59;4996268;28;20151;-57
2023/02/09 11:11:34;;;;;;;;;;;;;;;3.38;51.03;100616.97;4992511;28;20507;-55
2023/02/09 11:13:59;;;;;;;;;;;;;;;3.32;50.21;100616.69;4993206;28;19926;-57
2023/02/09 11:16:31;;;;;;;;;;;;;;;3.41;51.26;100614.53;4992062;28;19925;-58
2023/02/09 11:19:05;;;;;;;;;;;;;;;3.48;50.57;100607.25;4994716;28;20025;-57
2023/02/09 11:21:33;;;;;;;;;;;;;;;3.57;50.45;100604.22;4995278;28;20296;-54
2023/02/09 11:23:59;;;;;;;;;;;;;;;3.72;49.89;100594.69;4994693;28;19933;-54
2023/02/09 11:26:43;;;;;;;;;;;;;;;3.78;50.21;100597.47;4993391;28;20415;-51
2023/02/09 11:29:17;;;;;;;;;;;;;;;3.90;49.60;100584.41;4994875;28;20497;-53
2023/02/09 11:32:01;;;;;;;;;;;;;;;3.73;50.04;100577.81;4996229;28;19933;-52
2023/02/09 11:34:45;;;;;;;;;;;;;;;3.88;48.61;100575.88;4998213;28;20376;-54
2023/02/09 11:37:26;;;;;;;;;;;;;;;3.63;49.58;100569.84;4999572;28;20384;-53
2023/02/09 11:39:58;;;;;;;;;;;;;;;3.77;49.20;100562.78;4999850;28;20424;-52
2023/02/09 11:42:44;;;;;;;;;;;;;;;3.87;48.18;100558.91;4997759;28;19934;-54
2023/02/09 11:45:10;;;;;;;;;;;;;;;3.89;47.39;100553.09;4997243;28;20404;-55
2023/02/09 11:47:58;;;;;;;;;;;;;;;4.03;47.97;100557.00;4994816;28;20028;-54
2023/02/09 11:50:24;;;;;;;;;;;;;;;4.18;48.44;100551.66;4980592;28;19991;-55
2023/02/09 11:52:52;;;;;;;;;;;;;;;4.29;47.26;100546.97;4978420;28;20388;-55
2023/02/09 11:55:57;;;;;;;;;;;;;;;4.21;46.74;100545.81;4977556;28;20386;-55
2023/02/09 11:58:32;;;;;;;;;;;;;;;3.96;47.06;100550.00;4906972;29;19931;-55
2023/02/09 12:01:11;;;;;;;;;;;;;;;3.97;46.55;100548.31;4919962;29;19934;-52
2023/02/09 12:03:38;;;;;;;;;;;;;;;4.00;46.76;100554.38;4917637;29;20449;-57
2023/02/09 12:06:04;;;;;;;;;;;;;;;4.01;46.13;100548.50;4917586;29;20010;-53
2023/02/09 12:09:08;;;;;;;;;;;;;;;4.06;45.76;100548.66;4920504;29;20539;-55
2023/02/09 12:11:33;;;;;;;;;;;;;;;4.29;45.58;100547.84;4846568;29;19931;-53
2023/02/09 12:14:10;;;;;;;;;;;;;;;4.37;45.11;100546.44;4848016;29;19935;-53
2023/02/09 12:16:38;;;;;;;;;;;;;;;4.44;44.55;100545.00;4845489;29;19928;-53
2023/02/09 12:19:23;;;;;;;;;;;;;;;4.46;44.79;100545.91;4843531;29;19936;-52
2023/02/09 12:21:48;;;;;;;;;;;;;;;4.38;44.95;100545.63;4845363;29;19935;-53
2023/02/09 12:24:32;;;;;;;;;;;;;;;4.40;44.23;100533.88;4844618;29;19932;-51
2023/02/09 12:26:58;;;;;;;;;;;;;;;4.45;44.49;100526.41;4853787;29;19927;-55
2023/02/09 12:29:34;;;;;;;;;;;;;;;4.45;44.45;100524.75;4914839;29;19937;-52
2023/02/09 12:32:02;;;;;;;;;;;;;;;4.49;44.04;100507.94;4940121;29;20452;-54
2023/02/09 12:34:36;;;;;;;;;;;;;;;4.51;43.13;100517.34;4938468;29;20045;-56
2023/02/09 12:37:14;;;;;;;;;;;;;;;4.36;43.31;100504.09;4937545;29;19957;-54
2023/02/09 12:39:58;;;;;;;;;;;;;;;4.40;43.18;100500.88;4927504;28;20040;-52
2023/02/09 12:42:26;;;;;;;;;;;;;;;4.50;43.33;100510.53;4960439;28;19985;-51
2023/02/09 12:44:55;;;;;;;;;;;;;;;4.36;43.34;100503.25;4996700;28;20389;-56